This is the latest recevied weather packets stored in our database for station/object KA3MCG-13. If no packets are shown the sender has not sent any weather packets the latest 10 day(s).
| Time | Temp. | Humidity | Pressure | Rain* | Wind** | Luminosity | Snow |
|---|---|---|---|---|---|---|---|
| 1777456817 | 11.67° C | 87% | 1013.6 hPa | 0 mm | - | 0 W/m² | - |
| 1777455017 | 11.67° C | 87% | 1013.7 hPa | 0 mm | - | 0 W/m² | - |
| 1777446017 | 11.67° C | 89% | 1014.2 hPa | 0 mm | - | 0 W/m² | - |
| 1777444217 | 11.67° C | 89% | 1014.5 hPa | 0 mm | - | 0 W/m² | - |
| 1777442417 | 11.67° C | 88% | 1014.9 hPa | 0 mm | - | 0 W/m² | - |
| 1777440617 | 11.67° C | 88% | 1015.4 hPa | 0 mm | - | 0 W/m² | - |
| 1777431616 | 11.67° C | 87% | 1016.4 hPa | 0 mm | - | 0 W/m² | - |
| 1777429816 | 11.67° C | 86% | 1016.7 hPa | 0 mm | - | 0 W/m² | - |
| 1777417216 | 12.78° C | 81% | 1016.4 hPa | 0 mm | - | 92 W/m² | - |
| 1777415416 | 12.78° C | 82% | 1016.1 hPa | 0 mm | - | 88 W/m² | - |
| 1777410016 | 12.78° C | 80% | 1016.4 hPa | 0 mm | - | 86 W/m² | - |
| 1777408216 | 12.78° C | 77% | 1016.5 hPa | 0 mm | - | 103 W/m² | - |
| 1777388415 | 10° C | 84% | 1019.4 hPa | 0.25 mm | - | 47 W/m² | - |
| 1777386616 | 10.56° C | 84% | 1019.8 hPa | 0.51 mm | - | 113 W/m² | - |
| 1777366821 | 10° C | 82% | 1020.2 hPa | 0 mm | - | 0 W/m² | - |
| 1777365022 | 10° C | 82% | 1020.9 hPa | 0 mm | - | 0 W/m² | - |
| 1777363221 | 10° C | 82% | 1021.3 hPa | 0 mm | - | 0 W/m² | - |
| 1777361427 | 10° C | 82% | 1021.4 hPa | 0 mm | - | 0 W/m² | - |
| 1777359627 | 9.44° C | 83% | 1021.7 hPa | 0 mm | - | 0 W/m² | - |
| 1777357817 | 10° C | 80% | 1021.7 hPa | 0 mm | - | 0 W/m² | - |
| 1777334416 | 16.67° C | 59% | 1021.7 hPa | 0 mm | - | 9 W/m² | - |
| 1777332616 | 17.78° C | 57% | 1021.9 hPa | 0 mm | - | 41 W/m² | - |
| 1777312816 | 20° C | 50% | 1023.1 hPa | 0 mm | - | 958 W/m² | - |
| 1777311016 | 18.89° C | 49% | 1023.3 hPa | 0 mm | - | 977 W/m² | - |
| 1777305616 | 18.33° C | 58% | 1024.1 hPa | 0 mm | - | 891 W/m² | - |
* Rain latest hour (hover to see other rain measurements)
** Current wind speed in m/s (hover to see current wind gust speed)